Surface/Precipitation History
02/05/2016 11:35  to  2/6/2016 11:35
Change End Date:
Date/Time
(MST)
Sf
Temp Chem Water Layer Surface Precipitation
Sfc Pvt Sub Frz Factor Pct Dpth DpthThk IcePct Cond Salin FI Type Intens Accum Rate
02/06/2016 11:31 Wet 35.4F - 30F 31F 95 3% 0.00 in - 0% 7 mhos 686 - None None - -
02/06/2016 11:28 Wet 36.0F - 30F 31F 95 3% 0.00 in - 0% 6 mhos 651 - None None - -
02/06/2016 11:18 Wet 34.7F - 30F 31F 95 2% 0.00 in - 0% 6 mhos 574 - Yes - - -
02/06/2016 11:16 Wet 34.2F - 30F 31F 95 2% 0.00 in - 0% 5 mhos 565 - Yes - - -
02/06/2016 11:08 Wet 32.5F - 30F 31F 95 2% 0.00 in - 0% 5 mhos 487 - Yes - - -
02/06/2016 11:01 Wet 32.4F - 30F 31F 95 2% 0.00 in - 0% 5 mhos 487 - None None - -
02/06/2016 10:58 Chemically Wet 31.8F - 30F 31F 95 2% 0.00 in - 0% 4 mhos 473 - Yes - - -
02/06/2016 10:48 Wet 32.7F - 30F 31F 95 2% 0.00 in - 0% 4 mhos 474 - None None - -
02/06/2016 10:46 Wet 32.4F - 30F 32F 95 2% 0.00 in - 0% 4 mhos 396 - None None - -
02/06/2016 10:38 Wet 32.7F - 30F 31F 95 2% 0.00 in - 0% 5 mhos 515 - None None - -
02/06/2016 10:31 Wet 32.2F - 30F 31F 95 2% 0.00 in - 0% 4 mhos 479 - None None - -
02/06/2016 10:28 Chemically Wet 31.6F - 30F 32F 95 1% 0.00 in - 0% 3 mhos 346 - None None - -
02/06/2016 10:18 Wet 33.8F - 30F 31F 95 2% 0.00 in - 0% 6 mhos 584 - None None - -
02/06/2016 10:16 Wet 33.3F - 30F 31F 95 2% 0.00 in - 0% 6 mhos 593 - None None - -
02/06/2016 10:08 Wet 32.9F - 30F 31F 95 2% 0.00 in - 0% 6 mhos 605 - None None - -
Date/Time
(MST)
Sf
Temp Chem Water Layer Surface Precipitation
Sfc Pvt Sub Frz Factor Pct Dpth DpthThk IcePct Cond Salin FI Type Intens Accum Rate
02/06/2016 10:01 Wet 33.1F - 30F 31F 95 2% 0.00 in - 0% 6 mhos 634 - None None - -
02/06/2016 09:57 Wet 33.3F - 30F 31F 95 2% 0.00 in - 0% 6 mhos 634 - None None - -
02/06/2016 09:47 Chemically Wet 31.5F - 30F 31F 95 3% 0.00 in - 0% 6 mhos 698 - None None - -
02/06/2016 09:46 Chemically Wet 31.3F - 30F 31F 95 3% - - 4% 7 mhos 716 - None None - -
02/06/2016 09:37 Chemically Wet 29.7F - 30F 31F 95 2% - - 73% 6 mhos 617 - None None - -
02/06/2016 09:31 Chemically Wet 28.8F - 30F 31F 95 2% - - 83% 5 mhos 568 - None None - -
02/06/2016 09:27 Chemically Wet 28.6F - 30F 31F 95 2% - - 84% 5 mhos 558 - None None - -
02/06/2016 09:17 Ice Warning 28.2F - 30F 31F 95 2% - - 86% 5 mhos 532 - None None - -
02/06/2016 09:16 Ice Warning 28.0F - 30F 31F 95 2% - - 87% 5 mhos 524 - None None - -
02/06/2016 09:07 Ice Warning 27.9F - 30F 31F 95 2% - - 88% 5 mhos 517 - None None - -
02/06/2016 09:01 Ice Warning 27.9F - 30F 31F 95 2% - - 88% 5 mhos 516 - None None - -
02/06/2016 08:57 Ice Warning 27.9F - 30F 31F 95 2% - - 88% 5 mhos 516 - None None - -
02/06/2016 08:47 Ice Warning 27.9F - 30F 31F 95 2% - - 88% 5 mhos 516 - None None - -
02/06/2016 08:46 Ice Warning 28.0F - 30F 31F 95 2% - - 87% 5 mhos 517 - None None - -
02/06/2016 08:37 Ice Warning 28.0F - 30F 31F 95 2% - - 87% 5 mhos 533 - None None - -
Date/Time
(MST)
Sf
Temp Chem Water Layer Surface Precipitation
Sfc Pvt Sub Frz Factor Pct Dpth DpthThk IcePct Cond Salin FI Type Intens Accum Rate
02/06/2016 08:31 Ice Warning 28.0F - 30F 31F 95 2% - - 86% 5 mhos 551 - None None - -
02/06/2016 08:27 Chemically Wet 28.4F - 30F 31F 95 2% - - 84% 5 mhos 558 - None None - -
02/06/2016 08:17 Chemically Wet 29.1F - 30F 31F 95 2% - - 78% 6 mhos 638 - None None - -
02/06/2016 08:16 Chemically Wet 29.1F - 30F 31F 95 3% - - 76% 6 mhos 693 - None None - -
02/06/2016 08:07 Chemically Wet 29.3F - 30F 31F 95 3% - - 74% 6 mhos 677 - None None - -
02/06/2016 08:01 Chemically Wet 29.3F - 30F 31F 95 2% - - 76% 6 mhos 639 - None None - -
02/06/2016 07:57 Chemically Wet 29.5F - 30F 31F 95 2% - - 74% 6 mhos 643 - None None - -
02/06/2016 07:47 Chemically Wet 29.8F - 30F 31F 95 3% - - 68% 6 mhos 681 - None None - -
02/06/2016 07:46 Chemically Wet 29.8F - 30F 31F 95 3% - - 68% 6 mhos 681 - None None - -
02/06/2016 07:37 Chemically Wet 30.0F - 30F 31F 95 3% - - 55% 8 mhos 885 - None None - -
02/06/2016 07:31 Chemically Wet 30.2F - 30F 31F 95 3% - - 52% 8 mhos 885 - None None - -
02/06/2016 07:27 Chemically Wet 30.2F - 30F 31F 95 3% - - 48% 8 mhos 877 - Yes - - -
02/06/2016 07:17 Chemically Wet 30.2F - 30F 31F 95 4% - - 45% 8 mhos 916 - Yes - - -
02/06/2016 07:16 Chemically Wet 30.2F - 30F 31F 95 3% - - 46% 8 mhos 909 - Yes - - -
02/06/2016 07:07 Chemically Wet 30.2F - 30F 31F 95 4% - - 45% 8 mhos 927 - Yes - - -
Date/Time
(MST)
Sf
Temp Chem Water Layer Surface Precipitation
Sfc Pvt Sub Frz Factor Pct Dpth DpthThk IcePct Cond Salin FI Type Intens Accum Rate
02/06/2016 07:01 Chemically Wet 30.2F - 30F 31F 95 3% - - 51% 8 mhos 889 - Yes - - -
02/06/2016 06:56 Chemically Wet 30.0F - 30F 31F 95 3% - - 57% 8 mhos 861 - Yes - - -
02/06/2016 06:46 Chemically Wet 30.2F - 30F 31F 95 4% - - 33% 10 mhos 1119 - Yes - - -
02/06/2016 06:46 Chemically Wet 30.2F - 30F 31F 95 4% - - 33% 10 mhos 1119 - Yes - - -
02/06/2016 06:36 Chemically Wet 30.4F - 30F 31F 95 3% - - 45% 8 mhos 832 - Yes - - -
02/06/2016 06:31 Chemically Wet 30.6F - 30F 31F 95 3% - - 46% 7 mhos 741 - Yes - - -
02/06/2016 06:26 Chemically Wet 30.6F - 30F 31F 95 2% - - 61% 5 mhos 535 - Yes - - -
02/06/2016 06:16 Ice Warning 30.0F - 30F 32F 95 0% - - 95% 1 mhos 102 - Yes - - -
02/06/2016 06:16 Ice Warning 30.0F - 30F 32F 95 0% - - 95% 1 mhos 102 - Yes - - -
02/06/2016 06:06 Ice Warning 28.9F - 30F 32F 95 0% - - 97% 1 mhos 95 - None None - -
02/06/2016 06:01 Ice Warning 28.8F - 30F 32F 95 0% - - 97% 1 mhos 100 - None None - -
02/06/2016 05:56 Ice Warning 28.8F - 30F 32F 95 0% - - 97% 1 mhos 109 - None None - -
02/06/2016 05:46 Ice Warning 28.6F - 30F 32F 95 0% - - 96% 1 mhos 124 - None None - -
02/06/2016 05:46 Ice Warning 28.6F - 30F 32F 95 0% - - 96% 1 mhos 124 - None None - -
02/06/2016 05:36 Ice Warning 28.8F - 30F 32F 85 0% - - 97% 1 mhos 96 - None None - -
Date/Time
(MST)
Sf
Temp Chem Water Layer Surface Precipitation
Sfc Pvt Sub Frz Factor Pct Dpth DpthThk IcePct Cond Salin FI Type Intens Accum Rate
02/06/2016 05:31 Ice Warning 28.8F - 30F 32F 80 0% - - 97% 1 mhos 96 - None None - -
02/06/2016 05:26 Ice Warning 28.8F - 30F 32F 95 0% - - 97% 1 mhos 94 - None None - -
02/06/2016 05:16 Ice Watch 28.6F - 30F - 90 - - - - 1 mhos 92 - None None - -
02/06/2016 05:16 Ice Watch 28.6F - 30F - 90 - - - - 1 mhos 92 - None None - -
02/06/2016 05:06 Ice Watch 28.6F - 30F - 90 - - - - 1 mhos 92 - None None - -
02/06/2016 05:01 Ice Watch 28.4F - 30F - 75 - - - - 1 mhos 92 - None None - -
02/06/2016 04:56 Ice Watch 28.4F - 30F - 80 - - - - 1 mhos 92 - None None - -
02/06/2016 04:46 Ice Watch 28.2F - 30F - 75 - - - - 1 mhos 91 - None None - -
02/06/2016 04:46 Ice Watch 28.2F - 30F - 75 - - - - 1 mhos 91 - None None - -
02/06/2016 04:36 Ice Watch 28.2F - 30F - 80 - - - - 1 mhos 91 - None None - -
02/06/2016 04:31 Ice Watch 28.0F - 30F - 85 - - - - 1 mhos 91 - None None - -
02/06/2016 04:26 Ice Watch 28.2F - 30F - 75 - - - - 1 mhos 91 - None None - -
02/06/2016 04:16 Ice Watch 28.2F - 30F - 90 - - - - 1 mhos 91 - None None - -
02/06/2016 04:16 Ice Watch 28.2F - 30F - 90 - - - - 1 mhos 91 - None None - -
02/06/2016 04:06 Ice Watch 28.2F - 30F - 85 - - - - 1 mhos 90 - None None - -
Date/Time
(MST)
Sf
Temp Chem Water Layer Surface Precipitation
Sfc Pvt Sub Frz Factor Pct Dpth DpthThk IcePct Cond Salin FI Type Intens Accum Rate
02/06/2016 04:01 Ice Watch 28.0F - 30F - 75 - - - - 1 mhos 90 - None None - -
02/06/2016 03:56 Ice Watch 28.0F - 30F - 85 - - - - 1 mhos 90 - None None - -
02/06/2016 03:46 Ice Watch 27.9F - 30F - 85 - - - - 1 mhos 90 - None None - -
02/06/2016 03:46 Ice Watch 27.9F - 30F - 85 - - - - 1 mhos 90 - None None - -
02/06/2016 03:36 Ice Watch 27.7F - 30F - 75 - - - - 1 mhos 90 - None None - -
02/06/2016 03:31 Ice Watch 27.3F - 30F - 75 - - - - 1 mhos 90 - None None - -
02/06/2016 03:25 Ice Watch 27.1F - 30F - 70 - - - - 1 mhos 90 - None None - -
02/06/2016 03:16 Ice Watch 26.8F - 30F - 80 - - - - 1 mhos 90 - None None - -
02/06/2016 03:15 Ice Watch 26.8F - 30F - 80 - - - - 1 mhos 90 - None None - -
02/06/2016 03:05 Ice Watch 26.4F - 30F - 70 - - - - 1 mhos 90 - None None - -
02/06/2016 03:01 Ice Watch 26.1F - 30F - 70 - - - - 1 mhos 90 - None None - -
02/06/2016 02:55 Ice Watch 25.7F - 30F - 70 - - - - 1 mhos 90 - None None - -
02/06/2016 02:46 Ice Watch 26.4F - 30F - 70 - - - - 1 mhos 89 - None None - -
02/06/2016 02:45 Ice Watch 26.4F - 30F - 70 - - - - 1 mhos 89 - None None - -
02/06/2016 02:35 Ice Watch 26.8F - 30F - 75 - - - - 1 mhos 90 - None None - -
Date/Time
(MST)
Sf
Temp Chem Water Layer Surface Precipitation
Sfc Pvt Sub Frz Factor Pct Dpth DpthThk IcePct Cond Salin FI Type Intens Accum Rate
02/06/2016 02:31 Ice Watch 26.8F - 30F - 80 - - - - 1 mhos 89 - None None - -
02/06/2016 02:25 Ice Watch 26.6F - 30F - 75 - - - - 1 mhos 89 - None None - -
02/06/2016 02:16 Ice Watch 25.7F - 30F - 80 - - - - 1 mhos 89 - None None - -
02/06/2016 02:15 Ice Watch 25.7F - 30F - 80 - - - - 1 mhos 89 - None None - -
02/06/2016 02:05 Ice Watch 25.9F - 30F - 80 - - - - 1 mhos 89 - None None - -
02/06/2016 02:01 Ice Watch 25.7F - 30F - 80 - - - - 1 mhos 89 - None None - -
02/06/2016 01:55 Ice Watch 25.7F - 30F - 85 - - - - 1 mhos 90 - None None - -
02/06/2016 01:46 Ice Watch 25.7F - 30F - 80 - - - - 1 mhos 89 - None None - -
02/06/2016 01:45 Ice Watch 25.7F - 30F - 80 - - - - 1 mhos 89 - None None - -
02/06/2016 01:35 Ice Watch 25.7F - 30F - 75 - - - - 1 mhos 89 - None None - -
02/06/2016 01:31 Ice Watch 25.7F - 30F - 70 - - - - 1 mhos 89 - None None - -
02/06/2016 01:25 Ice Watch 25.7F - 30F - 80 - - - - 1 mhos 89 - None None - -
02/06/2016 01:16 Ice Watch 25.7F - 30F - 70 - - - - 1 mhos 88 - None None - -
02/06/2016 01:15 Ice Watch 25.7F - 30F - 70 - - - - 1 mhos 88 - None None - -
02/06/2016 01:05 Ice Watch 25.7F - 30F - 80 - - - - 1 mhos 88 - None None - -
Date/Time
(MST)
Sf
Temp Chem Water Layer Surface Precipitation
Sfc Pvt Sub Frz Factor Pct Dpth DpthThk IcePct Cond Salin FI Type Intens Accum Rate
02/06/2016 01:01 Ice Watch 25.7F - 30F - 85 - - - - 1 mhos 88 - None None - -
02/06/2016 00:55 Ice Watch 25.7F - 30F - 80 - - - - 1 mhos 88 - None None - -
02/06/2016 00:46 Ice Watch 26.1F - 30F - 75 - - - - 1 mhos 87 - None None - -
02/06/2016 00:45 Ice Watch 26.1F - 30F - 75 - - - - 1 mhos 87 - None None - -
02/06/2016 00:35 Ice Watch 26.4F - 30F - 75 - - - - 1 mhos 87 - None None - -
02/06/2016 00:31 Ice Watch 26.6F - 30F - 75 - - - - 1 mhos 87 - None None - -
02/06/2016 00:25 Ice Watch 26.6F - 30F - 80 - - - - 1 mhos 87 - None None - -
02/06/2016 00:16 Ice Watch 26.4F - 30F - 70 - - - - 1 mhos 87 - None None - -
02/06/2016 00:15 Ice Watch 26.2F - 30F - 80 - - - - 1 mhos 87 - None None - -
02/06/2016 00:04 Ice Watch 26.2F - 30F - 80 - - - - 1 mhos 86 - None None - -
02/06/2016 00:01 Ice Watch 26.2F - 30F - 80 - - - - 1 mhos 86 - None None - -
02/05/2016 23:54 Ice Watch 26.2F - 30F - 75 - - - - 1 mhos 86 - None None - -
02/05/2016 23:46 Ice Watch 26.2F - 30F - 85 - - - - 1 mhos 85 - None None - -
02/05/2016 23:44 Ice Watch 26.2F - 30F - 80 - - - - 1 mhos 85 - None None - -
02/05/2016 23:34 Ice Watch 26.1F - 30F - 75 - - - - 1 mhos 84 - None None - -
Date/Time
(MST)
Sf
Temp Chem Water Layer Surface Precipitation
Sfc Pvt Sub Frz Factor Pct Dpth DpthThk IcePct Cond Salin FI Type Intens Accum Rate
02/05/2016 23:31 Ice Watch 26.2F - 30F - 85 - - - - 1 mhos 84 - None None - -
02/05/2016 23:24 Ice Watch 26.2F - 30F - 80 - - - - 1 mhos 83 - None None - -
02/05/2016 23:16 Ice Watch 26.4F - 30F - 75 - - - - 1 mhos 83 - None None - -
02/05/2016 23:14 Ice Watch 26.4F - 30F - 75 - - - - 1 mhos 83 - None None - -
02/05/2016 23:04 Ice Watch 26.2F - 30F - 75 - - - - 1 mhos 82 - None None - -
02/05/2016 23:01 Ice Watch 26.2F - 30F - 70 - - - - 1 mhos 81 - None None - -
02/05/2016 22:54 Ice Watch 26.2F - 30F - 70 - - - - 1 mhos 80 - None None - -
02/05/2016 22:46 Ice Watch 26.4F - 30F - 80 - - - - 1 mhos 80 - None None - -
02/05/2016 22:44 Ice Watch 26.4F - 30F - 80 - - - - 1 mhos 79 - None None - -
02/05/2016 22:34 Ice Watch 27.0F - 30F - 70 - - - - 1 mhos 77 - None None - -
02/05/2016 22:31 Ice Watch 27.1F - 30F - 75 - - - - 1 mhos 76 - None None - -
02/05/2016 22:24 Ice Watch 27.5F - 30F - 70 - - - - 1 mhos 76 - None None - -
02/05/2016 22:16 Ice Watch 27.1F - 30F - 75 - - - - 1 mhos 73 - None None - -
02/05/2016 22:14 Ice Watch 27.0F - 30F - 75 - - - - 1 mhos 72 - None None - -
02/05/2016 22:04 Ice Watch 26.4F - 30F - 65 - - - - 1 mhos 70 - None None - -
Date/Time
(MST)
Sf
Temp Chem Water Layer Surface Precipitation
Sfc Pvt Sub Frz Factor Pct Dpth DpthThk IcePct Cond Salin FI Type Intens Accum Rate
02/05/2016 22:01 Ice Watch 26.2F - 30F - 75 - - - - 1 mhos 69 - None None - -
02/05/2016 21:54 Ice Watch 26.1F - 30F - 75 - - - - 1 mhos 67 - None None - -
02/05/2016 21:46 Ice Watch 25.7F - 30F - 75 - - - - 1 mhos 65 - None None - -
02/05/2016 21:44 Ice Watch 25.7F - 30F - 70 - - - - 1 mhos 65 - None None - -
02/05/2016 21:34 Ice Watch 26.1F - 30F - 50 - - - - 1 mhos 64 - None None - -
02/05/2016 21:31 Ice Watch 26.2F - 30F - 55 - - - - 1 mhos 63 - None None - -
02/05/2016 21:24 Ice Watch 26.1F - 30F - 50 - - - - 1 mhos 62 - None None - -
02/05/2016 21:16 Ice Watch 26.2F - 30F - 50 - - - - 1 mhos 60 - None None - -
02/05/2016 21:14 Ice Watch 26.2F - 30F - 50 - - - - 1 mhos 60 - None None - -
02/05/2016 21:04 Ice Watch 26.6F - 30F - 50 - - - - 0 mhos 57 - None None - -
02/05/2016 21:01 Ice Watch 26.8F - 30F - 50 - - - - 0 mhos 57 - None None - -
02/05/2016 20:54 Ice Watch 26.6F - 30F - 50 - - - - 0 mhos 55 - None None - -
02/05/2016 20:46 Ice Watch 26.8F - 30F - 50 - - - - 0 mhos 53 - None None - -
02/05/2016 20:44 Ice Watch 26.8F - 30F - 50 - - - - 0 mhos 53 - None None - -
02/05/2016 20:33 Ice Watch 27.0F - 30F - 45 - - - - 0 mhos 50 - None None - -
Date/Time
(MST)
Sf
Temp Chem Water Layer Surface Precipitation
Sfc Pvt Sub Frz Factor Pct Dpth DpthThk IcePct Cond Salin FI Type Intens Accum Rate
02/05/2016 20:31 Ice Watch 27.0F - 30F - 45 - - - - 0 mhos 49 - None None - -
02/05/2016 20:23 Ice Watch 27.0F - 30F - 45 - - - - 0 mhos 47 - None None - -
02/05/2016 20:16 Ice Watch 27.0F - 30F - 50 - - - - 0 mhos 44 - None None - -
02/05/2016 20:13 Ice Watch 27.1F - 30F - 45 - - - - 0 mhos 44 - None None - -
02/05/2016 20:03 Ice Watch 27.3F - 30F - 45 - - - - 0 mhos 40 - None None - -
02/05/2016 20:01 Ice Watch 27.3F - 30F - 45 - - - - 0 mhos 39 - None None - -
02/05/2016 19:53 Ice Watch 27.5F - 30F - 45 - - - - 0 mhos 36 - None None - -
02/05/2016 19:46 Ice Watch 28.0F - 30F - 50 - - - - 0 mhos 32 - None None - -
02/05/2016 19:43 Ice Watch 28.0F - 30F - 50 - - - - 0 mhos 31 - None None - -
02/05/2016 19:33 Ice Watch 28.6F - 30F - 45 - - - - 0 mhos 26 - None None - -
02/05/2016 19:31 Ice Watch 28.6F - 30F - 45 - - - - 0 mhos 24 - None None - -
02/05/2016 19:23 Ice Watch 28.9F - 30F - 45 - - - - 0 mhos 20 - None None - -
02/05/2016 19:16 Ice Watch 29.3F - 30F - 45 - - - - 0 mhos 17 - None None - -
02/05/2016 19:13 Ice Watch 29.3F - 30F - 45 - - - - 0 mhos 16 - None None - -
02/05/2016 19:03 Ice Watch 29.8F - 30F - 45 - - - - 0 mhos 12 - None None - -
Date/Time
(MST)
Sf
Temp Chem Water Layer Surface Precipitation
Sfc Pvt Sub Frz Factor Pct Dpth DpthThk IcePct Cond Salin FI Type Intens Accum Rate
02/05/2016 19:01 Ice Watch 30.0F - 30F - 45 - - - - 0 mhos 11 - None None - -
02/05/2016 18:53 Ice Watch 30.2F - 30F - 40 - - - - 0 mhos 8 - None None - -
02/05/2016 18:46 Ice Watch 30.2F - 30F - 45 - - - - 0 mhos 7 - None None - -
02/05/2016 18:43 Ice Watch 30.4F - 30F - 40 - - - - 0 mhos 7 - None None - -
02/05/2016 18:33 Ice Watch 30.9F - 30F - 45 - - - - 0 mhos 6 - None None - -
02/05/2016 18:31 Ice Watch 30.9F - 30F - 45 - - - - 0 mhos 5 - None None - -
02/05/2016 18:23 Ice Watch 31.3F - 30F - 45 - - - - 0 mhos 5 - None None - -
02/05/2016 18:16 Ice Watch 31.5F - 30F - 35 - - - - 0 mhos 4 - None None - -
02/05/2016 18:13 Ice Watch 31.6F - 30F - 35 - - - - 0 mhos 4 - None None - -
02/05/2016 18:03 Trace Moisture 32.4F - 30F - 25 - - - - 0 mhos 3 - None None - -
02/05/2016 18:01 Trace Moisture 32.5F - 30F - 25 - - - - 0 mhos 3 - None None - -
02/05/2016 17:53 Trace Moisture 32.7F - 30F - 15 - - - - 0 mhos 2 - None None - -
02/05/2016 17:46 Trace Moisture 33.3F - 30F - 5 - - - - 0 mhos 2 - None None - -
02/05/2016 17:43 Trace Moisture 33.6F - 30F - 5 - - - - 0 mhos 2 - None None - -
02/05/2016 17:32 Trace Moisture 34.7F - 30F - 5 - - - - 0 mhos 1 - None None - -
Date/Time
(MST)
Sf
Temp Chem Water Layer Surface Precipitation
Sfc Pvt Sub Frz Factor Pct Dpth DpthThk IcePct Cond Salin FI Type Intens Accum Rate
02/05/2016 17:31 Trace Moisture 34.9F - 30F - 5 - - - - 0 mhos 1 - None None - -
02/05/2016 17:22 Trace Moisture 35.8F - 30F - 5 - - - - 0 mhos 1 - None None - -
02/05/2016 17:16 Trace Moisture 36.5F - 30F - 5 - - - - 0 mhos 1 - None None - -
02/05/2016 17:12 Trace Moisture 36.7F - 30F - 5 - - - - 0 mhos 1 - None None - -
02/05/2016 17:02 Trace Moisture 37.9F - 30F - 5 - - - - 0 mhos 1 - None None - -
02/05/2016 17:01 Trace Moisture 38.1F - 30F - 5 - - - - 0 mhos 1 - None None - -
02/05/2016 16:52 Trace Moisture 39.0F - 29F - 5 - - - - 0 mhos 1 - None None - -
02/05/2016 16:46 Trace Moisture 39.9F - 29F - 5 - - - - 0 mhos 1 - None None - -
02/05/2016 16:42 Trace Moisture 40.3F - 29F - 5 - - - - 0 mhos 1 - None None - -
02/05/2016 16:32 Dry 41.4F - 29F - - - - - - 0 mhos 0 - None None - -
02/05/2016 16:31 Dry 41.5F - 29F - - - - - - 0 mhos 0 - None None - -
02/05/2016 16:22 Dry 41.9F - 29F - - - - - - 0 mhos 0 - None None - -
02/05/2016 16:16 Dry 42.4F - 29F - - - - - - 0 mhos 0 - None None - -
02/05/2016 16:12 Dry 42.4F - 29F - - - - - - 0 mhos 0 - None None - -
02/05/2016 16:02 Dry 43.7F - 29F - - - - - - 0 mhos 0 - None None - -
Date/Time
(MST)
Sf
Temp Chem Water Layer Surface Precipitation
Sfc Pvt Sub Frz Factor Pct Dpth DpthThk IcePct Cond Salin FI Type Intens Accum Rate
02/05/2016 16:01 Dry 43.7F - 29F - - - - - - 0 mhos 0 - None None - -
02/05/2016 15:52 Dry 44.4F - 29F - - - - - - 0 mhos 0 - None None - -
02/05/2016 15:46 Dry 44.8F - 29F - - - - - - 0 mhos 0 - None None - -
02/05/2016 15:42 Dry 45.0F - 29F - - - - - - 0 mhos 0 - None None - -
02/05/2016 15:32 Dry 45.3F - 29F - - - - - - 0 mhos 0 - None None - -
02/05/2016 15:31 Dry 45.3F - 29F - - - - - - 0 mhos 0 - None None - -
02/05/2016 15:22 Dry 46.4F - 29F - - - - - - 0 mhos 0 - None None - -
02/05/2016 15:16 Dry 46.9F - 29F - - - - - - 0 mhos 0 - None None - -
02/05/2016 15:12 Dry 47.1F - 29F - - - - - - 0 mhos 0 - None None - -
02/05/2016 15:02 Dry 48.2F - 29F - - - - - - 0 mhos 0 - None None - -
02/05/2016 15:01 Dry 48.0F - 29F - - - - - - 0 mhos 0 - None None - -
02/05/2016 14:51 Dry 50.5F - 29F - - - - - - 0 mhos 0 - None None - -
02/05/2016 14:46 Dry 51.6F - 29F - - - - - - 0 mhos 0 - None None - -
02/05/2016 14:41 Dry 52.3F - 29F - - - - - - 0 mhos 0 - None None - -
02/05/2016 14:31 Dry 52.3F - 29F - - - - - - 0 mhos 0 - None None - -
Date/Time
(MST)
Sf
Temp Chem Water Layer Surface Precipitation
Sfc Pvt Sub Frz Factor Pct Dpth DpthThk IcePct Cond Salin FI Type Intens Accum Rate
02/05/2016 14:31 Dry 52.5F - 29F - - - - - - 0 mhos 0 - None None - -
02/05/2016 14:21 Dry 51.8F - 29F - - - - - - 0 mhos 0 - None None - -
02/05/2016 14:16 Dry 51.6F - 29F - - - - - - 0 mhos 0 - None None - -
02/05/2016 14:11 Dry 52.3F - 29F - - - - - - 0 mhos 0 - None None - -
02/05/2016 14:01 Dry 51.4F - 29F - - - - - - 0 mhos 0 - None None - -
02/05/2016 14:01 Dry 51.4F - 29F - - - - - - 0 mhos 0 - None None - -
02/05/2016 13:51 Dry 52.3F - 29F - - - - - - 0 mhos 0 - None None - -
02/05/2016 13:46 Dry 51.1F - 29F - - - - - - 0 mhos 0 - None None - -
02/05/2016 13:41 Dry 50.2F - 29F - - - - - - 0 mhos 0 - None None - -
02/05/2016 13:31 Dry 51.1F - 29F - - - - - - 0 mhos 0 - None None - -
02/05/2016 13:31 Dry 51.1F - 29F - - - - - - 0 mhos 0 - None None - -
02/05/2016 13:21 Dry 48.9F - 29F - - - - - - 0 mhos 0 - None None - -
02/05/2016 13:16 Dry 48.4F - 29F - - - - - - 0 mhos 0 - None None - -
02/05/2016 13:11 Dry 47.7F - 29F - - - - - - 0 mhos 0 - None None - -
02/05/2016 13:01 Dry 46.9F - 29F - - - - - - 0 mhos 0 - None None - -
Date/Time
(MST)
Sf
Temp Chem Water Layer Surface Precipitation
Sfc Pvt Sub Frz Factor Pct Dpth DpthThk IcePct Cond Salin FI Type Intens Accum Rate
02/05/2016 13:01 Dry 46.9F - 29F - - - - - - 0 mhos 0 - None None - -
02/05/2016 12:51 Dry 43.7F - 29F - - - - - - 0 mhos 0 - None None - -
02/05/2016 12:46 Dry 42.8F - 29F - - - - - - 0 mhos 0 - None None - -
02/05/2016 12:41 Dry 42.4F - 29F - - - - - - 0 mhos 0 - None None - -
02/05/2016 12:31 Dry 43.7F - 29F - - - - - - 0 mhos 0 - None None - -
02/05/2016 12:31 Dry 43.7F - 29F - - - - - - 0 mhos 0 - None None - -
02/05/2016 12:21 Dry 44.2F - 29F - - - - - - 0 mhos 0 - None None - -
02/05/2016 12:16 Dry 45.0F - 29F - - - - - - 0 mhos 0 - None None - -
02/05/2016 12:11 Dry 45.3F - 29F - - - - - - 0 mhos 0 - None None - -
02/05/2016 12:01 Dry 43.9F - 29F - - - - - - 0 mhos 0 - None None - -
02/05/2016 12:01 Dry 43.9F - 29F - - - - - - 0 mhos 0 - None None - -
02/05/2016 11:51 Dry 42.1F - 29F - - - - - - 0 mhos 1 - None None - -
02/05/2016 11:46 Dry 42.4F - 29F - - - - - - 0 mhos 1 - None None - -
02/05/2016 11:40 Dry 43.7F - 29F - - - - - - 0 mhos 1 - None None - -
Change End Date:

Copyright © 1998-2015 Vaisala, Inc.
All Rights Reserved
Send comments about the data to:
SCAN Web ® is a registered trademark of Vaisala, Inc.
SCAN Web Version 6.0